createdAt,value
2023-03-23T15:59:05.336Z,64.14
2023-03-23T16:01:31.926Z,64.06
2023-03-23T16:04:05.239Z,63.72
2023-03-23T16:06:34.018Z,64.58
2023-03-23T16:09:01.431Z,65.18
2023-03-23T16:11:29.756Z,64.86
2023-03-23T16:13:58.200Z,64.48
2023-03-23T16:16:28.844Z,64.49
2023-03-23T16:18:55.511Z,63.94
2023-03-23T16:21:22.745Z,64.64
2023-03-23T16:23:51.260Z,64.51
2023-03-23T16:26:17.880Z,65.60
2023-03-23T16:28:44.993Z,64.42
2023-03-23T16:31:17.175Z,65.33
2023-03-23T16:33:43.982Z,65.50
2023-03-23T16:36:14.770Z,64.52
2023-03-23T16:38:49.939Z,64.25
2023-03-23T16:41:18.405Z,65.48
2023-03-23T16:43:45.580Z,64.66
2023-03-23T16:46:15.878Z,65.25
2023-03-23T16:48:44.671Z,65.27
2023-03-23T16:51:18.617Z,65.10
2023-03-23T16:53:48.729Z,66.06
2023-03-23T16:56:23.637Z,64.60
2023-03-23T16:58:53.870Z,65.62
2023-03-23T17:01:26.109Z,65.32
2023-03-23T17:03:52.728Z,65.16
2023-03-23T17:06:21.604Z,64.60
2023-03-23T17:08:50.710Z,65.49
2023-03-23T17:11:17.394Z,64.92
2023-03-23T17:13:43.986Z,66.35
2023-03-23T17:16:13.785Z,66.58
2023-03-23T17:18:47.653Z,66.30
2023-03-23T17:21:14.294Z,66.75
2023-03-23T17:23:44.447Z,66.41
2023-03-23T17:26:13.540Z,67.04
2023-03-23T17:28:42.349Z,67.18
2023-03-23T17:31:08.935Z,66.90
2023-03-23T17:33:35.458Z,67.36
2023-03-23T17:36:06.357Z,67.47
2023-03-23T17:38:35.709Z,67.79
2023-03-23T17:41:06.103Z,68.02
2023-03-23T17:43:42.147Z,68.10
2023-03-23T17:46:12.247Z,67.60
2023-03-23T17:48:41.442Z,68.23
2023-03-23T17:51:09.936Z,68.04
2023-03-23T17:53:37.028Z,68.77
2023-03-23T17:56:07.150Z,68.64
2023-03-23T17:58:35.605Z,68.88
2023-03-23T18:01:08.062Z,68.32
2023-03-23T18:03:40.988Z,68.48
2023-03-23T18:06:16.569Z,69.34
2023-03-23T18:08:43.941Z,69.58
2023-03-23T18:11:14.239Z,68.43
2023-03-23T18:13:40.922Z,68.83
2023-03-23T18:16:12.573Z,69.59
2023-03-23T18:18:41.277Z,69.94
2023-03-23T18:21:10.481Z,70.21
2023-03-23T18:23:53.021Z,69.92
2023-03-23T18:26:26.308Z,69.46
2023-03-23T18:28:56.139Z,70.34
2023-03-23T18:31:39.917Z,70.51
2023-03-23T18:34:09.597Z,70.06
2023-03-23T18:36:40.397Z,71.02
2023-03-23T18:39:09.746Z,70.60
2023-03-23T18:41:41.192Z,71.22
2023-03-23T18:44:10.545Z,70.74
2023-03-23T18:46:40.401Z,71.89
2023-03-23T18:49:09.061Z,71.53
2023-03-23T18:51:37.442Z,71.60
2023-03-23T18:54:16.672Z,71.99
2023-03-23T18:56:43.545Z,71.92
2023-03-23T18:59:22.762Z,71.80
2023-03-23T19:01:58.969Z,72.48
2023-03-23T19:04:25.857Z,71.95
2023-03-23T19:06:52.447Z,71.94
2023-03-23T19:09:28.383Z,71.61
2023-03-23T19:11:59.468Z,71.62
2023-03-23T19:14:43.611Z,71.98
2023-03-23T19:17:13.353Z,72.76
2023-03-23T19:19:46.324Z,72.68
2023-03-23T19:22:13.276Z,72.21
2023-03-23T19:24:54.080Z,72.73
2023-03-23T19:27:21.259Z,72.72
2023-03-23T19:29:48.266Z,72.27
2023-03-23T19:32:14.994Z,72.19
2023-03-23T19:34:41.705Z,72.16
2023-03-23T19:37:11.448Z,71.94
2023-03-23T19:39:38.576Z,71.64
2023-03-23T19:42:09.533Z,72.44
2023-03-23T19:44:41.440Z,72.48
2023-03-23T19:47:12.860Z,72.47
2023-03-23T19:49:43.756Z,72.16
2023-03-23T19:52:13.601Z,72.95
2023-03-23T19:54:47.372Z,73.31
2023-03-23T19:57:20.005Z,72.83
2023-03-23T19:59:49.633Z,73.22
2023-03-23T20:02:21.925Z,72.98
2023-03-23T20:04:52.434Z,73.12
2023-03-23T20:07:22.018Z,73.09
2023-03-23T20:09:53.345Z,73.62
2023-03-23T20:12:24.103Z,73.52
2023-03-23T20:14:56.773Z,74.30
2023-03-23T20:17:23.557Z,74.01
2023-03-23T20:20:06.412Z,75.04
2023-03-23T20:22:34.684Z,75.23
2023-03-23T20:25:01.799Z,75.34
2023-03-23T20:27:37.852Z,75.49
2023-03-23T20:30:06.457Z,76.21
2023-03-23T20:32:42.064Z,75.79
2023-03-23T20:35:11.059Z,75.80
2023-03-23T20:37:40.256Z,76.29
2023-03-23T20:40:11.927Z,76.66
2023-03-23T20:42:43.137Z,76.88
2023-03-23T20:45:13.122Z,77.00
2023-03-23T20:47:43.835Z,77.83
2023-03-23T20:50:11.190Z,76.39
2023-03-23T20:52:38.886Z,77.39
2023-03-23T20:55:09.392Z,76.60
2023-03-23T20:57:36.294Z,76.87
2023-03-23T21:00:07.749Z,77.81
2023-03-23T21:02:37.737Z,77.92
2023-03-23T21:05:06.699Z,78.33
2023-03-23T21:07:35.346Z,78.01
2023-03-23T21:10:04.931Z,77.75
2023-03-23T21:12:32.084Z,78.69
2023-03-23T21:15:08.302Z,78.76
2023-03-23T21:17:37.626Z,78.35
2023-03-23T21:20:12.800Z,79.00
2023-03-23T21:22:52.720Z,79.52
2023-03-23T21:25:21.131Z,79.29
2023-03-23T21:28:04.949Z,79.57
2023-03-23T21:30:42.518Z,79.71
2023-03-23T21:33:11.985Z,79.02
2023-03-23T21:35:44.536Z,79.97
2023-03-23T21:38:13.964Z,78.76
2023-03-23T21:40:44.626Z,79.44
2023-03-23T21:43:14.360Z,80.32
2023-03-23T21:45:50.214Z,80.05
2023-03-23T21:48:17.001Z,79.60
2023-03-23T21:50:43.896Z,80.58
2023-03-23T21:53:13.135Z,79.73
2023-03-23T21:55:42.974Z,80.36
2023-03-23T21:58:11.810Z,79.93
2023-03-23T22:00:38.700Z,81.36
2023-03-23T22:03:10.428Z,80.18
2023-03-23T22:05:47.788Z,80.58
2023-03-23T22:08:16.876Z,79.66
2023-03-23T22:11:01.165Z,80.48
2023-03-23T22:13:45.296Z,80.26
2023-03-23T22:16:19.866Z,81.01
2023-03-23T22:18:51.436Z,80.72
2023-03-23T22:21:24.620Z,81.26
2023-03-23T22:23:52.079Z,80.75
2023-03-23T22:26:28.819Z,81.27
2023-03-23T22:28:58.788Z,80.62
2023-03-23T22:31:29.031Z,80.66
2023-03-23T22:34:05.235Z,80.49
2023-03-23T22:36:37.556Z,81.08
2023-03-23T22:39:09.597Z,80.91
2023-03-23T22:41:38.800Z,80.32
2023-03-23T22:44:10.874Z,81.34
2023-03-23T22:46:43.478Z,81.00
2023-03-23T22:49:11.731Z,81.31
2023-03-23T22:51:47.974Z,81.27
2023-03-23T22:54:14.586Z,80.93
2023-03-23T22:56:44.236Z,81.97
2023-03-23T22:59:11.009Z,81.75
2023-03-23T23:01:42.013Z,81.94
2023-03-23T23:04:08.900Z,81.94
2023-03-23T23:06:44.070Z,82.02
2023-03-23T23:09:10.726Z,82.65
2023-03-23T23:11:37.439Z,81.45
2023-03-23T23:14:06.910Z,81.46
2023-03-23T23:16:36.206Z,81.10
2023-03-23T23:19:02.966Z,81.23
2023-03-23T23:21:34.781Z,81.70
2023-03-23T23:24:06.423Z,81.69
2023-03-23T23:26:33.555Z,81.37
2023-03-23T23:29:03.902Z,81.01
2023-03-23T23:31:39.680Z,81.41
2023-03-23T23:34:07.496Z,81.79
2023-03-23T23:36:35.933Z,80.97
2023-03-23T23:39:05.247Z,80.89
2023-03-23T23:41:37.424Z,80.65
2023-03-23T23:44:06.152Z,81.02
2023-03-23T23:46:33.246Z,80.34
2023-03-23T23:49:05.719Z,79.74
2023-03-23T23:51:37.231Z,80.10
2023-03-23T23:54:04.236Z,80.09
2023-03-23T23:56:31.291Z,79.93
2023-03-23T23:58:59.404Z,79.11
